sensor_id;sensor_type;location;lat;lon;timestamp;temperature;humidity
75838;SHT30;64480;52.040;113.502;2023-07-08T00:00:43;23.52;62.59
75838;SHT30;64480;52.040;113.502;2023-07-08T00:03:49;23.59;62.65
75838;SHT30;64480;52.040;113.502;2023-07-08T00:07:03;23.57;62.32
75838;SHT30;64480;52.040;113.502;2023-07-08T00:10:28;23.40;63.35
75838;SHT30;64480;52.040;113.502;2023-07-08T00:13:31;23.50;62.75
75838;SHT30;64480;52.040;113.502;2023-07-08T00:16:35;23.50;63.27
75838;SHT30;64480;52.040;113.502;2023-07-08T00:19:39;23.62;63.49
75838;SHT30;64480;52.040;113.502;2023-07-08T00:22:51;24.44;60.71
75838;SHT30;64480;52.040;113.502;2023-07-08T00:25:58;25.07;59.35
75838;SHT30;64480;52.040;113.502;2023-07-08T00:29:01;25.85;56.36
75838;SHT30;64480;52.040;113.502;2023-07-08T00:32:14;26.07;55.72
75838;SHT30;64480;52.040;113.502;2023-07-08T00:43:41;26.94;53.64
75838;SHT30;64480;52.040;113.502;2023-07-08T00:47:07;26.88;54.13
75838;SHT30;64480;52.040;113.502;2023-07-08T00:50:11;26.87;54.49
75838;SHT30;64480;52.040;113.502;2023-07-08T00:53:24;26.82;54.26
75838;SHT30;64480;52.040;113.502;2023-07-08T00:56:38;26.78;54.41
75838;SHT30;64480;52.040;113.502;2023-07-08T00:59:47;26.82;54.64
75838;SHT30;64480;52.040;113.502;2023-07-08T01:02:54;26.91;54.26
75838;SHT30;64480;52.040;113.502;2023-07-08T01:05:58;27.02;53.32
75838;SHT30;64480;52.040;113.502;2023-07-08T01:09:06;26.96;53.38
75838;SHT30;64480;52.040;113.502;2023-07-08T01:12:16;26.77;54.16
75838;SHT30;64480;52.040;113.502;2023-07-08T01:15:22;26.71;54.54
75838;SHT30;64480;52.040;113.502;2023-07-08T01:18:27;26.47;55.03
75838;SHT30;64480;52.040;113.502;2023-07-08T01:21:37;26.44;55.32
75838;SHT30;64480;52.040;113.502;2023-07-08T01:24:43;26.30;55.64
75838;SHT30;64480;52.040;113.502;2023-07-08T01:27:49;26.61;55.16
75838;SHT30;64480;52.040;113.502;2023-07-08T01:30:55;26.78;54.86
75838;SHT30;64480;52.040;113.502;2023-07-08T01:33:59;27.30;53.98
75838;SHT30;64480;52.040;113.502;2023-07-08T01:37:04;27.67;52.86
75838;SHT30;64480;52.040;113.502;2023-07-08T01:43:24;27.15;52.58
75838;SHT30;64480;52.040;113.502;2023-07-08T01:46:28;27.07;53.85
75838;SHT30;64480;52.040;113.502;2023-07-08T01:49:34;27.12;53.89
75838;SHT30;64480;52.040;113.502;2023-07-08T01:52:39;26.98;53.94
75838;SHT30;64480;52.040;113.502;2023-07-08T01:55:43;26.96;54.96
75838;SHT30;64480;52.040;113.502;2023-07-08T01:58:46;26.65;55.47
75838;SHT30;64480;52.040;113.502;2023-07-08T02:01:50;26.50;56.36
75838;SHT30;64480;52.040;113.502;2023-07-08T02:04:58;26.70;55.26
75838;SHT30;64480;52.040;113.502;2023-07-08T02:08:01;26.98;55.15
75838;SHT30;64480;52.040;113.502;2023-07-08T02:11:05;27.02;55.37
75838;SHT30;64480;52.040;113.502;2023-07-08T02:14:08;27.13;54.15
75838;SHT30;64480;52.040;113.502;2023-07-08T02:17:12;26.94;54.71
75838;SHT30;64480;52.040;113.502;2023-07-08T02:20:18;27.37;55.40
75838;SHT30;64480;52.040;113.502;2023-07-08T02:23:22;27.76;53.59
75838;SHT30;64480;52.040;113.502;2023-07-08T02:26:25;28.37;53.42
75838;SHT30;64480;52.040;113.502;2023-07-08T02:29:30;28.05;52.94
75838;SHT30;64480;52.040;113.502;2023-07-08T02:32:35;27.76;53.10
75838;SHT30;64480;52.040;113.502;2023-07-08T02:35:41;27.33;54.02
75838;SHT30;64480;52.040;113.502;2023-07-08T02:38:46;27.20;56.17
75838;SHT30;64480;52.040;113.502;2023-07-08T02:41:50;27.30;55.33
75838;SHT30;64480;52.040;113.502;2023-07-08T02:44:53;27.57;54.38
75838;SHT30;64480;52.040;113.502;2023-07-08T02:47:57;27.71;54.25
75838;SHT30;64480;52.040;113.502;2023-07-08T02:51:04;28.06;53.36
75838;SHT30;64480;52.040;113.502;2023-07-08T02:54:08;28.29;53.03
75838;SHT30;64480;52.040;113.502;2023-07-08T02:57:12;28.13;53.45
75838;SHT30;64480;52.040;113.502;2023-07-08T03:00:15;28.09;52.92
75838;SHT30;64480;52.040;113.502;2023-07-08T03:03:19;27.98;52.68
75838;SHT30;64480;52.040;113.502;2023-07-08T03:06:26;28.30;53.36
75838;SHT30;64480;52.040;113.502;2023-07-08T03:09:33;28.44;52.52
75838;SHT30;64480;52.040;113.502;2023-07-08T03:12:36;28.17;52.20
75838;SHT30;64480;52.040;113.502;2023-07-08T03:15:40;28.12;52.63
75838;SHT30;64480;52.040;113.502;2023-07-08T03:18:47;28.13;53.31
75838;SHT30;64480;52.040;113.502;2023-07-08T03:21:52;27.96;53.42
75838;SHT30;64480;52.040;113.502;2023-07-08T03:24:55;28.06;53.06
75838;SHT30;64480;52.040;113.502;2023-07-08T03:27:59;28.39;52.81
75838;SHT30;64480;52.040;113.502;2023-07-08T03:31:03;29.08;51.57
75838;SHT30;64480;52.040;113.502;2023-07-08T03:34:11;29.22;51.17
75838;SHT30;64480;52.040;113.502;2023-07-08T03:37:15;29.08;50.60
75838;SHT30;64480;52.040;113.502;2023-07-08T03:40:18;29.09;50.62
75838;SHT30;64480;52.040;113.502;2023-07-08T03:43:23;29.04;51.14
75838;SHT30;64480;52.040;113.502;2023-07-08T03:46:26;28.82;51.05
75838;SHT30;64480;52.040;113.502;2023-07-08T03:49:30;29.11;51.36
75838;SHT30;64480;52.040;113.502;2023-07-08T03:52:34;29.42;50.14
75838;SHT30;64480;52.040;113.502;2023-07-08T03:55:38;29.50;48.96
75838;SHT30;64480;52.040;113.502;2023-07-08T03:58:41;29.33;48.12
75838;SHT30;64480;52.040;113.502;2023-07-08T04:01:46;29.06;47.69
75838;SHT30;64480;52.040;113.502;2023-07-08T04:04:50;28.50;47.46
75838;SHT30;64480;52.040;113.502;2023-07-08T04:07:54;28.40;49.79
75838;SHT30;64480;52.040;113.502;2023-07-08T04:10:58;28.27;51.00
75838;SHT30;64480;52.040;113.502;2023-07-08T04:14:02;27.96;51.19
75838;SHT30;64480;52.040;113.502;2023-07-08T04:17:07;27.84;53.18
75838;SHT30;64480;52.040;113.502;2023-07-08T04:20:15;27.46;51.02
75838;SHT30;64480;52.040;113.502;2023-07-08T04:23:19;27.23;51.31
75838;SHT30;64480;52.040;113.502;2023-07-08T04:26:25;26.96;53.01
75838;SHT30;64480;52.040;113.502;2023-07-08T04:29:29;26.71;53.38
75838;SHT30;64480;52.040;113.502;2023-07-08T04:32:32;26.58;54.38
75838;SHT30;64480;52.040;113.502;2023-07-08T04:35:37;26.52;54.15
75838;SHT30;64480;52.040;113.502;2023-07-08T04:38:43;26.41;55.07
75838;SHT30;64480;52.040;113.502;2023-07-08T04:41:51;26.43;55.76
75838;SHT30;64480;52.040;113.502;2023-07-08T04:44:55;26.41;56.70
75838;SHT30;64480;52.040;113.502;2023-07-08T04:47:58;26.58;56.62
75838;SHT30;64480;52.040;113.502;2023-07-08T04:51:02;26.55;56.15
75838;SHT30;64480;52.040;113.502;2023-07-08T04:54:06;26.58;56.27
75838;SHT30;64480;52.040;113.502;2023-07-08T04:57:10;26.71;55.68
75838;SHT30;64480;52.040;113.502;2023-07-08T05:00:16;26.92;56.38
75838;SHT30;64480;52.040;113.502;2023-07-08T05:03:20;27.37;56.93
75838;SHT30;64480;52.040;113.502;2023-07-08T05:06:23;27.54;55.32
75838;SHT30;64480;52.040;113.502;2023-07-08T05:09:26;27.82;53.84
75838;SHT30;64480;52.040;113.502;2023-07-08T05:12:30;28.06;53.65
75838;SHT30;64480;52.040;113.502;2023-07-08T05:15:33;28.17;52.66
75838;SHT30;64480;52.040;113.502;2023-07-08T05:18:38;27.92;53.30
75838;SHT30;64480;52.040;113.502;2023-07-08T05:21:41;27.72;53.65
75838;SHT30;64480;52.040;113.502;2023-07-08T05:24:46;27.64;53.88
75838;SHT30;64480;52.040;113.502;2023-07-08T05:27:49;27.65;55.28
75838;SHT30;64480;52.040;113.502;2023-07-08T05:30:54;27.74;55.80
75838;SHT30;64480;52.040;113.502;2023-07-08T05:34:01;27.84;55.80
75838;SHT30;64480;52.040;113.502;2023-07-08T05:37:04;27.78;55.23
75838;SHT30;64480;52.040;113.502;2023-07-08T05:40:08;27.53;55.47
75838;SHT30;64480;52.040;113.502;2023-07-08T05:43:12;27.34;56.11
75838;SHT30;64480;52.040;113.502;2023-07-08T05:46:15;27.23;56.89
75838;SHT30;64480;52.040;113.502;2023-07-08T05:49:19;27.19;57.04
75838;SHT30;64480;52.040;113.502;2023-07-08T05:52:22;27.34;56.26
75838;SHT30;64480;52.040;113.502;2023-07-08T05:55:26;27.50;56.54
75838;SHT30;64480;52.040;113.502;2023-07-08T05:58:29;27.54;55.92
75838;SHT30;64480;52.040;113.502;2023-07-08T06:01:33;27.70;55.92
75838;SHT30;64480;52.040;113.502;2023-07-08T06:04:36;27.80;55.17
75838;SHT30;64480;52.040;113.502;2023-07-08T06:07:40;27.78;55.65
75838;SHT30;64480;52.040;113.502;2023-07-08T06:10:44;27.89;56.06
75838;SHT30;64480;52.040;113.502;2023-07-08T06:13:48;28.01;55.45
75838;SHT30;64480;52.040;113.502;2023-07-08T06:16:52;28.13;55.85
75838;SHT30;64480;52.040;113.502;2023-07-08T06:20:01;28.23;55.93
75838;SHT30;64480;52.040;113.502;2023-07-08T06:23:08;28.30;54.11
75838;SHT30;64480;52.040;113.502;2023-07-08T06:26:44;28.39;54.61
75838;SHT30;64480;52.040;113.502;2023-07-08T06:30:04;28.43;54.24
75838;SHT30;64480;52.040;113.502;2023-07-08T06:33:08;28.53;53.30
75838;SHT30;64480;52.040;113.502;2023-07-08T06:36:39;28.59;52.43
75838;SHT30;64480;52.040;113.502;2023-07-08T06:40:07;28.68;52.81
75838;SHT30;64480;52.040;113.502;2023-07-08T06:43:26;28.85;52.07
75838;SHT30;64480;52.040;113.502;2023-07-08T06:46:45;28.96;52.52
75838;SHT30;64480;52.040;113.502;2023-07-08T06:49:51;29.08;51.52
75838;SHT30;64480;52.040;113.502;2023-07-08T06:52:54;29.18;52.29
75838;SHT30;64480;52.040;113.502;2023-07-08T06:55:58;29.27;52.42
75838;SHT30;64480;52.040;113.502;2023-07-08T06:59:02;29.37;52.79
75838;SHT30;64480;52.040;113.502;2023-07-08T07:02:07;29.47;51.69
75838;SHT30;64480;52.040;113.502;2023-07-08T07:05:11;29.67;50.48
75838;SHT30;64480;52.040;113.502;2023-07-08T07:08:29;29.84;51.05
75838;SHT30;64480;52.040;113.502;2023-07-08T07:11:36;29.89;50.02
75838;SHT30;64480;52.040;113.502;2023-07-08T07:14:48;29.89;50.63
75838;SHT30;64480;52.040;113.502;2023-07-08T07:17:55;29.76;51.33
75838;SHT30;64480;52.040;113.502;2023-07-08T07:20:59;29.74;51.28
75838;SHT30;64480;52.040;113.502;2023-07-08T07:24:03;29.77;50.45
75838;SHT30;64480;52.040;113.502;2023-07-08T07:27:07;29.73;50.19
75838;SHT30;64480;52.040;113.502;2023-07-08T07:30:12;29.87;51.27
75838;SHT30;64480;52.040;113.502;2023-07-08T07:33:21;29.94;50.83
75838;SHT30;64480;52.040;113.502;2023-07-08T07:36:24;29.95;49.99
75838;SHT30;64480;52.040;113.502;2023-07-08T07:39:28;29.78;51.34
75838;SHT30;64480;52.040;113.502;2023-07-08T07:42:31;29.56;50.81
75838;SHT30;64480;52.040;113.502;2023-07-08T07:45:35;29.30;51.93
75838;SHT30;64480;52.040;113.502;2023-07-08T07:48:41;29.01;52.35
75838;SHT30;64480;52.040;113.502;2023-07-08T07:51:52;27.99;49.33
75838;SHT30;64480;52.040;113.502;2023-07-08T07:54:59;26.23;51.09
75838;SHT30;64480;52.040;113.502;2023-07-08T07:58:02;24.96;52.31
75838;SHT30;64480;52.040;113.502;2023-07-08T08:01:07;24.16;54.26
75838;SHT30;64480;52.040;113.502;2023-07-08T08:04:11;23.79;55.19
75838;SHT30;64480;52.040;113.502;2023-07-08T08:07:17;23.18;57.75
75838;SHT30;64480;52.040;113.502;2023-07-08T08:10:20;22.65;59.14
75838;SHT30;64480;52.040;113.502;2023-07-08T08:13:24;22.04;64.36
75838;SHT30;64480;52.040;113.502;2023-07-08T08:16:27;21.34;64.27
75838;SHT30;64480;52.040;113.502;2023-07-08T08:19:31;21.10;68.01
75838;SHT30;64480;52.040;113.502;2023-07-08T08:22:37;20.91;67.74
75838;SHT30;64480;52.040;113.502;2023-07-08T08:25:44;20.89;70.25
75838;SHT30;64480;52.040;113.502;2023-07-08T08:28:47;20.97;65.96
75838;SHT30;64480;52.040;113.502;2023-07-08T08:31:51;21.15;71.30
75838;SHT30;64480;52.040;113.502;2023-07-08T08:34:54;21.27;72.89
75838;SHT30;64480;52.040;113.502;2023-07-08T08:37:58;21.39;71.82
75838;SHT30;64480;52.040;113.502;2023-07-08T08:41:13;21.42;71.33
75838;SHT30;64480;52.040;113.502;2023-07-08T08:44:22;21.42;70.27
75838;SHT30;64480;52.040;113.502;2023-07-08T08:47:38;21.51;68.82
75838;SHT30;64480;52.040;113.502;2023-07-08T08:50:56;21.59;70.19
75838;SHT30;64480;52.040;113.502;2023-07-08T08:54:03;21.58;67.11
75838;SHT30;64480;52.040;113.502;2023-07-08T09:00:42;21.59;73.37
75838;SHT30;64480;52.040;113.502;2023-07-08T09:03:54;21.58;72.07
75838;SHT30;64480;52.040;113.502;2023-07-08T09:07:14;21.45;71.70
75838;SHT30;64480;52.040;113.502;2023-07-08T09:10:55;21.38;73.33
75838;SHT30;64480;52.040;113.502;2023-07-08T09:14:01;20.75;76.09
75838;SHT30;64480;52.040;113.502;2023-07-08T09:17:24;20.53;79.29
75838;SHT30;64480;52.040;113.502;2023-07-08T09:20:39;20.45;77.73
75838;SHT30;64480;52.040;113.502;2023-07-08T09:23:49;20.48;79.17
75838;SHT30;64480;52.040;113.502;2023-07-08T09:27:11;20.48;77.40
75838;SHT30;64480;52.040;113.502;2023-07-08T09:30:21;20.56;79.62
75838;SHT30;64480;52.040;113.502;2023-07-08T09:33:25;20.59;80.10
75838;SHT30;64480;52.040;113.502;2023-07-08T09:36:30;20.62;79.56
75838;SHT30;64480;52.040;113.502;2023-07-08T09:39:35;20.46;77.35
75838;SHT30;64480;52.040;113.502;2023-07-08T09:42:42;20.25;79.57
75838;SHT30;64480;52.040;113.502;2023-07-08T09:45:47;20.16;79.28
75838;SHT30;64480;52.040;113.502;2023-07-08T09:48:51;20.21;81.46
75838;SHT30;64480;52.040;113.502;2023-07-08T09:51:55;20.28;80.52
75838;SHT30;64480;52.040;113.502;2023-07-08T09:55:00;20.38;81.59
75838;SHT30;64480;52.040;113.502;2023-07-08T09:58:04;20.41;79.97
75838;SHT30;64480;52.040;113.502;2023-07-08T10:01:13;20.31;80.02
75838;SHT30;64480;52.040;113.502;2023-07-08T10:04:19;20.18;81.06
75838;SHT30;64480;52.040;113.502;2023-07-08T10:07:31;20.10;80.85
75838;SHT30;64480;52.040;113.502;2023-07-08T10:10:37;19.97;79.34
75838;SHT30;64480;52.040;113.502;2023-07-08T10:13:46;19.91;80.72
75838;SHT30;64480;52.040;113.502;2023-07-08T10:17:16;19.79;79.49
75838;SHT30;64480;52.040;113.502;2023-07-08T10:20:20;19.67;79.95
75838;SHT30;64480;52.040;113.502;2023-07-08T10:30:32;19.59;81.71
75838;SHT30;64480;52.040;113.502;2023-07-08T10:34:06;19.61;81.12
75838;SHT30;64480;52.040;113.502;2023-07-08T10:41:04;19.69;80.43
75838;SHT30;64480;52.040;113.502;2023-07-08T11:11:55;19.39;82.63
75838;SHT30;64480;52.040;113.502;2023-07-08T11:15:20;19.34;82.31
75838;SHT30;64480;52.040;113.502;2023-07-08T11:18:43;19.32;82.51
75838;SHT30;64480;52.040;113.502;2023-07-08T11:21:57;19.28;82.55
75838;SHT30;64480;52.040;113.502;2023-07-08T11:25:18;19.24;82.71
75838;SHT30;64480;52.040;113.502;2023-07-08T11:28:51;19.28;83.16
75838;SHT30;64480;52.040;113.502;2023-07-08T11:32:17;19.35;82.91
75838;SHT30;64480;52.040;113.502;2023-07-08T11:35:52;19.38;82.04
75838;SHT30;64480;52.040;113.502;2023-07-08T11:39:01;19.45;82.78
75838;SHT30;64480;52.040;113.502;2023-07-08T11:42:37;19.44;81.61
75838;SHT30;64480;52.040;113.502;2023-07-08T11:45:49;19.44;82.38
75838;SHT30;64480;52.040;113.502;2023-07-08T11:49:19;19.49;82.03
75838;SHT30;64480;52.040;113.502;2023-07-08T11:52:23;19.55;81.85
75838;SHT30;64480;52.040;113.502;2023-07-08T11:55:36;19.65;81.19
75838;SHT30;64480;52.040;113.502;2023-07-08T12:02:19;19.63;80.56
75838;SHT30;64480;52.040;113.502;2023-07-08T12:05:36;19.69;80.22
75838;SHT30;64480;52.040;113.502;2023-07-08T12:08:42;19.70;80.44
75838;SHT30;64480;52.040;113.502;2023-07-08T12:11:47;19.73;80.43
75838;SHT30;64480;52.040;113.502;2023-07-08T12:14:58;19.73;79.41
75838;SHT30;64480;52.040;113.502;2023-07-08T12:21:13;19.58;80.72
75838;SHT30;64480;52.040;113.502;2023-07-08T12:24:18;19.51;80.55
75838;SHT30;64480;52.040;113.502;2023-07-08T12:27:21;19.58;81.46
75838;SHT30;64480;52.040;113.502;2023-07-08T12:30:28;19.52;81.31
75838;SHT30;64480;52.040;113.502;2023-07-08T12:33:33;19.51;80.97
75838;SHT30;64480;52.040;113.502;2023-07-08T12:36:40;19.45;80.80
75838;SHT30;64480;52.040;113.502;2023-07-08T12:39:55;19.38;81.02
75838;SHT30;64480;52.040;113.502;2023-07-08T12:42:59;19.36;81.15
75838;SHT30;64480;52.040;113.502;2023-07-08T12:46:03;19.36;81.84
75838;SHT30;64480;52.040;113.502;2023-07-08T12:49:08;19.29;82.53
75838;SHT30;64480;52.040;113.502;2023-07-08T12:52:22;19.24;81.71
75838;SHT30;64480;52.040;113.502;2023-07-08T12:55:26;19.15;82.15
75838;SHT30;64480;52.040;113.502;2023-07-08T12:58:34;19.15;82.50
75838;SHT30;64480;52.040;113.502;2023-07-08T13:01:38;19.17;83.39
75838;SHT30;64480;52.040;113.502;2023-07-08T13:04:44;19.15;83.45
75838;SHT30;64480;52.040;113.502;2023-07-08T13:07:48;19.14;83.80
75838;SHT30;64480;52.040;113.502;2023-07-08T13:10:58;19.12;83.76
75838;SHT30;64480;52.040;113.502;2023-07-08T13:14:05;19.10;83.58
75838;SHT30;64480;52.040;113.502;2023-07-08T13:17:14;18.94;83.58
75838;SHT30;64480;52.040;113.502;2023-07-08T13:20:18;18.90;83.93
75838;SHT30;64480;52.040;113.502;2023-07-08T13:23:23;18.89;83.89
75838;SHT30;64480;52.040;113.502;2023-07-08T13:26:29;18.86;83.60
75838;SHT30;64480;52.040;113.502;2023-07-08T13:29:34;18.80;83.75
75838;SHT30;64480;52.040;113.502;2023-07-08T13:32:38;18.82;83.94
75838;SHT30;64480;52.040;113.502;2023-07-08T13:35:42;18.80;84.24
75838;SHT30;64480;52.040;113.502;2023-07-08T13:38:47;18.72;83.93
75838;SHT30;64480;52.040;113.502;2023-07-08T13:41:50;18.65;84.44
75838;SHT30;64480;52.040;113.502;2023-07-08T13:44:54;18.62;84.95
75838;SHT30;64480;52.040;113.502;2023-07-08T13:48:03;18.63;85.13
75838;SHT30;64480;52.040;113.502;2023-07-08T13:51:19;18.56;85.57
75838;SHT30;64480;52.040;113.502;2023-07-08T13:54:33;18.49;85.55
75838;SHT30;64480;52.040;113.502;2023-07-08T13:57:38;18.42;85.48
75838;SHT30;64480;52.040;113.502;2023-07-08T14:00:42;18.39;85.43
75838;SHT30;64480;52.040;113.502;2023-07-08T14:03:46;18.42;85.58
75838;SHT30;64480;52.040;113.502;2023-07-08T14:06:50;18.45;85.61
75838;SHT30;64480;52.040;113.502;2023-07-08T14:09:53;18.51;85.69
75838;SHT30;64480;52.040;113.502;2023-07-08T14:12:57;18.48;84.91
75838;SHT30;64480;52.040;113.502;2023-07-08T14:16:01;18.52;85.16
75838;SHT30;64480;52.040;113.502;2023-07-08T14:19:14;18.51;85.32
75838;SHT30;64480;52.040;113.502;2023-07-08T14:25:25;18.45;84.75
75838;SHT30;64480;52.040;113.502;2023-07-08T14:28:29;18.39;84.54
75838;SHT30;64480;52.040;113.502;2023-07-08T14:31:32;18.34;84.27
75838;SHT30;64480;52.040;113.502;2023-07-08T14:34:36;18.38;84.50
75838;SHT30;64480;52.040;113.502;2023-07-08T14:37:39;18.44;84.62
75838;SHT30;64480;52.040;113.502;2023-07-08T14:40:43;18.41;84.89
75838;SHT30;64480;52.040;113.502;2023-07-08T14:43:47;18.42;85.60
75838;SHT30;64480;52.040;113.502;2023-07-08T14:46:52;18.51;85.81
75838;SHT30;64480;52.040;113.502;2023-07-08T14:49:56;18.55;85.92
75838;SHT30;64480;52.040;113.502;2023-07-08T14:52:59;18.63;85.60
75838;SHT30;64480;52.040;113.502;2023-07-08T14:56:14;18.69;85.35
75838;SHT30;64480;52.040;113.502;2023-07-08T14:59:21;18.66;84.97
75838;SHT30;64480;52.040;113.502;2023-07-08T15:02:24;18.72;85.11
75838;SHT30;64480;52.040;113.502;2023-07-08T15:05:28;18.77;84.89
75838;SHT30;64480;52.040;113.502;2023-07-08T15:08:32;18.74;84.41
75838;SHT30;64480;52.040;113.502;2023-07-08T15:11:39;18.63;84.83
75838;SHT30;64480;52.040;113.502;2023-07-08T15:14:42;18.60;84.94
75838;SHT30;64480;52.040;113.502;2023-07-08T15:17:46;18.55;85.02
75838;SHT30;64480;52.040;113.502;2023-07-08T15:20:50;18.51;85.26
75838;SHT30;64480;52.040;113.502;2023-07-08T15:23:54;18.46;85.13
75838;SHT30;64480;52.040;113.502;2023-07-08T15:26:57;18.41;85.30
75838;SHT30;64480;52.040;113.502;2023-07-08T15:30:01;18.35;85.40
75838;SHT30;64480;52.040;113.502;2023-07-08T15:33:07;18.35;84.89
75838;SHT30;64480;52.040;113.502;2023-07-08T15:36:12;18.37;84.95
75838;SHT30;64480;52.040;113.502;2023-07-08T15:39:16;18.37;84.91
75838;SHT30;64480;52.040;113.502;2023-07-08T15:42:20;18.38;84.93
75838;SHT30;64480;52.040;113.502;2023-07-08T15:45:28;18.44;85.00
75838;SHT30;64480;52.040;113.502;2023-07-08T15:48:32;18.45;84.63
75838;SHT30;64480;52.040;113.502;2023-07-08T15:51:35;18.32;84.76
75838;SHT30;64480;52.040;113.502;2023-07-08T15:54:39;18.17;85.19
75838;SHT30;64480;52.040;113.502;2023-07-08T15:57:48;18.07;85.82
75838;SHT30;64480;52.040;113.502;2023-07-08T16:00:52;18.08;86.15
75838;SHT30;64480;52.040;113.502;2023-07-08T16:03:56;18.12;85.61
75838;SHT30;64480;52.040;113.502;2023-07-08T16:06:59;18.24;85.47
75838;SHT30;64480;52.040;113.502;2023-07-08T16:10:03;18.27;85.07
75838;SHT30;64480;52.040;113.502;2023-07-08T16:13:10;18.35;85.23
75838;SHT30;64480;52.040;113.502;2023-07-08T16:16:13;18.35;84.84
75838;SHT30;64480;52.040;113.502;2023-07-08T16:19:17;18.31;84.90
75838;SHT30;64480;52.040;113.502;2023-07-08T16:22:20;18.28;84.56
75838;SHT30;64480;52.040;113.502;2023-07-08T16:25:29;18.24;84.96
75838;SHT30;64480;52.040;113.502;2023-07-08T16:28:44;18.22;85.07
75838;SHT30;64480;52.040;113.502;2023-07-08T16:31:49;18.18;84.89
75838;SHT30;64480;52.040;113.502;2023-07-08T16:34:53;18.22;85.17
75838;SHT30;64480;52.040;113.502;2023-07-08T16:37:56;18.15;85.18
75838;SHT30;64480;52.040;113.502;2023-07-08T16:40:59;18.17;85.04
75838;SHT30;64480;52.040;113.502;2023-07-08T16:44:14;18.25;85.29
75838;SHT30;64480;52.040;113.502;2023-07-08T16:47:18;18.25;84.77
75838;SHT30;64480;52.040;113.502;2023-07-08T16:50:26;18.27;85.12
75838;SHT30;64480;52.040;113.502;2023-07-08T16:53:31;18.25;84.65
75838;SHT30;64480;52.040;113.502;2023-07-08T16:56:34;18.22;85.08
75838;SHT30;64480;52.040;113.502;2023-07-08T16:59:41;18.24;84.92
75838;SHT30;64480;52.040;113.502;2023-07-08T17:02:45;18.25;85.14
75838;SHT30;64480;52.040;113.502;2023-07-08T17:05:49;18.19;85.22
75838;SHT30;64480;52.040;113.502;2023-07-08T17:08:54;18.07;85.47
75838;SHT30;64480;52.040;113.502;2023-07-08T17:11:57;18.07;86.16
75838;SHT30;64480;52.040;113.502;2023-07-08T17:15:01;18.02;85.95
75838;SHT30;64480;52.040;113.502;2023-07-08T17:18:05;17.94;86.02
75838;SHT30;64480;52.040;113.502;2023-07-08T17:21:14;17.82;86.21
75838;SHT30;64480;52.040;113.502;2023-07-08T17:24:18;17.72;86.58
75838;SHT30;64480;52.040;113.502;2023-07-08T17:27:21;17.69;86.79
75838;SHT30;64480;52.040;113.502;2023-07-08T17:30:25;17.67;86.73
75838;SHT30;64480;52.040;113.502;2023-07-08T17:33:29;17.66;86.49
75838;SHT30;64480;52.040;113.502;2023-07-08T17:36:34;17.63;86.60
75838;SHT30;64480;52.040;113.502;2023-07-08T17:39:39;17.65;86.36
75838;SHT30;64480;52.040;113.502;2023-07-08T17:42:42;17.62;86.33
75838;SHT30;64480;52.040;113.502;2023-07-08T17:45:46;17.65;86.30
75838;SHT30;64480;52.040;113.502;2023-07-08T17:48:51;17.72;86.29
75838;SHT30;64480;52.040;113.502;2023-07-08T17:51:54;17.77;86.20
75838;SHT30;64480;52.040;113.502;2023-07-08T17:54:58;17.84;85.77
75838;SHT30;64480;52.040;113.502;2023-07-08T17:58:02;17.82;85.49
75838;SHT30;64480;52.040;113.502;2023-07-08T18:01:08;17.83;85.62
75838;SHT30;64480;52.040;113.502;2023-07-08T18:04:12;17.82;85.75
75838;SHT30;64480;52.040;113.502;2023-07-08T18:07:16;17.80;85.88
75838;SHT30;64480;52.040;113.502;2023-07-08T18:10:21;17.84;85.93
75838;SHT30;64480;52.040;113.502;2023-07-08T18:13:26;17.80;85.86
75838;SHT30;64480;52.040;113.502;2023-07-08T18:16:34;17.79;85.68
75838;SHT30;64480;52.040;113.502;2023-07-08T18:19:38;17.77;85.79
75838;SHT30;64480;52.040;113.502;2023-07-08T18:22:45;17.69;85.50
75838;SHT30;64480;52.040;113.502;2023-07-08T18:25:49;17.63;85.60
75838;SHT30;64480;52.040;113.502;2023-07-08T18:28:53;17.62;85.57
75838;SHT30;64480;52.040;113.502;2023-07-08T18:31:56;17.63;85.17
75838;SHT30;64480;52.040;113.502;2023-07-08T18:35:00;17.62;85.25
75838;SHT30;64480;52.040;113.502;2023-07-08T18:38:03;17.62;85.05
75838;SHT30;64480;52.040;113.502;2023-07-08T18:41:19;17.62;84.88
75838;SHT30;64480;52.040;113.502;2023-07-08T18:44:27;17.62;85.09
75838;SHT30;64480;52.040;113.502;2023-07-08T18:47:31;17.59;84.30
75838;SHT30;64480;52.040;113.502;2023-07-08T18:50:34;17.52;84.35
75838;SHT30;64480;52.040;113.502;2023-07-08T18:53:38;17.48;84.79
75838;SHT30;64480;52.040;113.502;2023-07-08T18:56:43;17.49;84.82
75838;SHT30;64480;52.040;113.502;2023-07-08T18:59:46;17.43;84.84
75838;SHT30;64480;52.040;113.502;2023-07-08T19:02:52;17.36;84.87
75838;SHT30;64480;52.040;113.502;2023-07-08T19:05:56;17.29;85.05
75838;SHT30;64480;52.040;113.502;2023-07-08T19:09:02;17.21;84.96
75838;SHT30;64480;52.040;113.502;2023-07-08T19:12:08;17.15;84.99
75838;SHT30;64480;52.040;113.502;2023-07-08T19:15:24;17.15;84.75
75838;SHT30;64480;52.040;113.502;2023-07-08T19:18:28;17.11;84.71
75838;SHT30;64480;52.040;113.502;2023-07-08T19:21:32;16.99;84.39
75838;SHT30;64480;52.040;113.502;2023-07-08T19:24:35;16.83;84.89
75838;SHT30;64480;52.040;113.502;2023-07-08T19:27:39;16.66;85.19
75838;SHT30;64480;52.040;113.502;2023-07-08T19:30:53;16.53;85.69
75838;SHT30;64480;52.040;113.502;2023-07-08T19:34:00;16.51;85.92
75838;SHT30;64480;52.040;113.502;2023-07-08T19:37:04;16.48;85.82
75838;SHT30;64480;52.040;113.502;2023-07-08T19:40:15;16.53;85.82
75838;SHT30;64480;52.040;113.502;2023-07-08T19:43:20;16.56;85.82
75838;SHT30;64480;52.040;113.502;2023-07-08T19:46:24;16.60;85.70
75838;SHT30;64480;52.040;113.502;2023-07-08T19:49:28;16.73;85.61
75838;SHT30;64480;52.040;113.502;2023-07-08T19:52:31;16.76;84.98
75838;SHT30;64480;52.040;113.502;2023-07-08T19:55:35;16.74;85.24
75838;SHT30;64480;52.040;113.502;2023-07-08T19:58:39;16.73;84.88
75838;SHT30;64480;52.040;113.502;2023-07-08T20:01:43;16.69;84.83
75838;SHT30;64480;52.040;113.502;2023-07-08T20:04:46;16.73;84.58
75838;SHT30;64480;52.040;113.502;2023-07-08T20:07:52;16.66;84.46